Bei Facebook empfehlenBei Twitter postenGoogle plusPinterest

Das Wetter im Erzgebirge am 14.05.2015

Wetter und Klima am 14.05.2015 Holzhau im Erzgebirge (630m ü.NN)
Letzte gemessene Temperatur und Uhrzeit der Messung23:45:00 Uhr1.20 °C
Temperatur (Maximum / Höchstwert) und Uhrzeit der Messung17:15:00 Uhr12.80 °C
Temperatur (Minimum / Tiefstwert) und Uhrzeit der Messung23:45:001.20 °C
Errechneter Absolutwert der Temperaturschwankungen zwischen Tmin und Tmax des Tages11.60 K
Errechnete Tagesmitteltemperatur7.61563 °C
Gesamt - Niederschlag des Tages (in flüssiger Form)1.03 Liter / m²
Luftdruck (Maximum / Höchstwert) und Zeitpunkt der Messung13:30:00 Uhr1011.20 hPa
Luftdruck (Minimum / Tiefstwert) und Zeitpunkt der Messung04:00:00 Uhr1008.20 hPa
Errechneter Absolutwert der Luftdruckschwankungen des Tages3.00 hPa
Höchste gemessene Windgeschwindigkeit und Uhrzeit der Messung12:15:00 Uhr9.72 km/h
Errechnete Windhäufigkeit in Relation zu den Messwerten des Tages4.16667 %
Niedrigste Windkühle (Windchill) und Zeitpunkt der Messung23:45:00 Uhr1.20 °C
Taupunkt (Maximum / Höchstwert) und Uhrzeit der Messung16:00:00 Uhr5.70 °C
Taupunkt (Minimum / Tiefstwert) und Uhrzeit der Messung23:45:00-0.90 °C
Anzahl der automatisch eingelesenen Messwerte 96

Detaillierte Wetter- und Klima- Messwerte für den 14.05.2015 in Holzhau im Erzgebirge (630m ü.NN)
ZeitTemperaturLuftdruckRel. LuftfeuchteWindWindrichtungWindchillTaupunktNiederschlag l/m²
23:45:001.20 °C1010.80 hPa86.00 %-0.90 °C1.03
23:30:001.40 °C1010.80 hPa85.00 %-0.80 °C1.03
23:15:001.60 °C1010.90 hPa85.00 %-0.60 °C1.03
23:00:001.80 °C1010.70 hPa83.00 %-0.80 °C1.03
22:45:002.30 °C1010.50 hPa83.00 %-0.30 °C1.03
22:30:002.90 °C1010.50 hPa82.00 %0.10 °C1.03
22:15:003.50 °C1010.60 hPa82.00 %0.70 °C1.03
22:00:003.90 °C1010.50 hPa81.00 %0.90 °C1.03
21:45:004.40 °C1010.00 hPa79.00 %1.10 °C1.03
21:30:004.90 °C1010.30 hPa79.00 %1.60 °C1.03
21:15:005.40 °C1010.30 hPa77.00 %1.70 °C1.03
21:00:005.90 °C1010.10 hPa75.00 %1.80 °C1.03
20:45:006.90 °C1010.20 hPa72.00 %2.20 °C1.03
20:30:008.10 °C1010.30 hPa69.00 %2.80 °C1.03
20:15:009.10 °C1010.20 hPa67.00 %3.30 °C1.03
20:00:009.90 °C1010.10 hPa65.00 %3.60 °C1.03
19:45:0010.20 °C1010.10 hPa64.00 %3.70 °C1.03
19:30:0010.50 °C1010.10 hPa62.00 %3.50 °C1.03
19:15:0011.00 °C1010.00 hPa61.00 %3.80 °C1.03
19:00:0011.60 °C1010.10 hPa58.00 %3.60 °C1.03
18:45:0011.90 °C1009.80 hPa59.00 %4.20 °C1.03
18:30:0011.90 °C1009.90 hPa60.00 %4.40 °C1.03
18:15:0011.80 °C1009.90 hPa59.00 %4.10 °C1.03
18:00:0011.20 °C1009.90 hPa60.00 %3.70 °C1.03
17:45:0011.90 °C1010.10 hPa58.00 %3.90 °C1.03
17:30:0012.60 °C1010.10 hPa58.00 %4.60 °C1.03
17:15:0012.80 °C1010.20 hPa57.00 %4.50 °C1.03
17:00:0012.80 °C1010.30 hPa57.00 %4.50 °C1.03
16:45:0012.70 °C1010.20 hPa59.00 %4.90 °C1.03
16:30:0012.80 °C1010.40 hPa59.00 %5.00 °C1.03
16:15:0012.60 °C1010.40 hPa59.00 %4.80 °C1.03
16:00:0012.80 °C1010.40 hPa62.00 %5.70 °C1.03
15:45:0012.80 °C1010.70 hPa60.00 %5.20 °C1.03
15:30:0012.30 °C1010.60 hPa61.00 %5.00 °C1.03
15:15:0012.10 °C1010.90 hPa61.00 %6.12 km/hWNW11.90 °C4.80 °C1.03
15:00:0012.30 °C1010.90 hPa61.00 %5.00 °C1.03
14:45:0011.60 °C1010.90 hPa67.00 %5.70 °C1.03
14:30:0011.00 °C1011.00 hPa65.00 %4.70 °C1.03
14:15:0011.00 °C1011.10 hPa64.00 %4.50 °C1.03
14:00:0010.90 °C1011.00 hPa68.00 %6.48 km/hWSW10.40 °C5.20 °C1.03
13:45:009.80 °C1011.00 hPa71.00 %4.80 °C1.03
13:30:009.50 °C1011.20 hPa71.00 %4.50 °C1.03
13:15:009.90 °C1011.00 hPa74.00 %1.08 km/hWNW9.90 °C5.50 °C1.03
13:00:008.40 °C1011.20 hPa80.00 %5.20 °C1.03
12:45:007.90 °C1011.20 hPa82.00 %5.00 °C1.03
12:30:007.50 °C1011.20 hPa83.00 %4.80 °C1.03
12:15:007.60 °C1011.10 hPa84.00 %9.72 km/hWSW5.80 °C5.10 °C1.03
12:00:007.50 °C1011.10 hPa85.00 %5.10 °C1.03
11:45:007.00 °C1011.10 hPa85.00 %4.70 °C1.03
11:30:006.90 °C1011.00 hPa85.00 %4.60 °C1.03
11:15:006.90 °C1010.90 hPa85.00 %4.60 °C1.03
11:00:007.20 °C1010.90 hPa84.00 %4.70 °C1.03
10:45:007.40 °C1010.60 hPa84.00 %4.90 °C1.03
10:30:007.60 °C1010.60 hPa84.00 %5.10 °C1.03
10:15:007.40 °C1010.60 hPa84.00 %4.90 °C1.03
10:00:007.60 °C1010.40 hPa83.00 %4.90 °C1.03
09:45:008.10 °C1010.50 hPa82.00 %5.20 °C1.03
09:30:008.20 °C1010.40 hPa83.00 %5.50 °C1.03
09:15:008.30 °C1010.20 hPa83.00 %5.60 °C1.03
09:00:007.90 °C1010.10 hPa86.00 %5.70 °C1.03
08:45:007.00 °C1009.90 hPa88.00 %5.20 °C1.03
08:30:006.30 °C1010.00 hPa88.00 %4.50 °C1.03
08:15:006.60 °C1010.20 hPa88.00 %4.80 °C1.03
08:00:006.60 °C1010.10 hPa90.00 %5.10 °C1.03
07:45:006.10 °C1009.80 hPa89.00 %4.40 °C1.03
07:30:005.80 °C1009.50 hPa89.00 %4.10 °C1.03
07:15:006.10 °C1009.70 hPa88.00 %4.30 °C0.51
07:00:006.50 °C1009.30 hPa88.00 %4.70 °C 
06:45:006.60 °C1009.20 hPa88.00 %4.80 °C 
06:30:006.30 °C1009.10 hPa88.00 %4.50 °C 
06:15:005.90 °C1009.00 hPa88.00 %4.10 °C 
06:00:005.50 °C1008.80 hPa88.00 %3.70 °C 
05:45:004.80 °C1009.00 hPa88.00 %3.00 °C 
05:30:004.50 °C1008.60 hPa87.00 %2.50 °C 
05:15:004.40 °C1008.60 hPa86.00 %2.30 °C 
05:00:004.70 °C1008.40 hPa86.00 %2.60 °C 
04:45:005.10 °C1008.30 hPa85.00 %2.80 °C 
04:30:005.50 °C1008.30 hPa85.00 %3.20 °C 
04:15:005.80 °C1008.40 hPa85.00 %3.50 °C 
04:00:005.90 °C1008.20 hPa85.00 %3.60 °C 
03:45:006.10 °C1008.40 hPa85.00 %3.80 °C 
03:30:006.10 °C1008.50 hPa84.00 %3.60 °C 
03:15:006.10 °C1008.40 hPa84.00 %3.60 °C 
03:00:006.10 °C1008.70 hPa84.00 %3.60 °C 
02:45:006.10 °C1008.90 hPa84.00 %3.60 °C 
02:30:005.90 °C1008.70 hPa84.00 %3.40 °C 
02:15:005.90 °C1008.60 hPa84.00 %3.40 °C 
02:00:006.00 °C1008.80 hPa84.00 %3.50 °C 
01:45:006.00 °C1008.90 hPa83.00 %3.30 °C 
01:30:006.10 °C1009.00 hPa83.00 %3.40 °C 
01:15:006.10 °C1009.10 hPa82.00 %3.30 °C 
01:00:006.20 °C1009.10 hPa82.00 %3.40 °C 
00:45:006.40 °C1009.30 hPa82.00 %3.60 °C 
00:30:006.40 °C1009.30 hPa82.00 %3.60 °C 
00:15:006.30 °C1009.50 hPa82.00 %3.50 °C 
00:00:006.40 °C1009.40 hPa82.00 %3.60 °C 

Permanenter Link zu dieser Seite: Wetter im Erzgebirge am 14.05.2015
Performance-Info: Die Erstellung der Seite / Statistik(en) / Tabelle(n) erforderte 5 Datenbankserver-Abfrage(n) und dauerte 102 Millisekunden. (Dieser Messwert ist von der Gesamt-Auslastung des Servers abhängig.)
Erzgebirge - Wetter | Erzgebirge - Wetter (Mobilgeräte) | Komplette Klimadatenbank